Richland, Texas
Current Conditions -  °F | °C
As of 1:53 PM on Saturday 25 Oct 2014 (Local Time) from KCRS Reporting Station
Clear Clear  
Wind Chill: 85°   Ceiling: Unl
Heat Index: 85°   Visibility: 10mi
Dew Point: 59°   Wind: 5mph
Humidity: 41%   Direction: NA
Pressure: 30.12"   Gusts: NA
Location:  31.93°N, 96.43°W
Report Text: KCRS 251853Z AUTO VRB04KT 10SM CLR 29/15 A3012 RMK AO2 SLP195 T02940150
Loading
Personal Weather Stations






























Interactive Weather Map
Tropical Storm Tracking
New forecast layout! Learn more

10-Day Weather Forecast

Advertisements
Track Severe Weather on mobile